sensor_id;sensor_type;location;lat;lon;timestamp;temperature;humidity
10143;DHT22;5112;54.088;13.446;2022-08-01T00:00:33;18.30;99.90
10143;DHT22;5112;54.088;13.446;2022-08-01T00:10:34;18.30;99.90
10143;DHT22;5112;54.088;13.446;2022-08-01T00:20:38;18.20;99.90
10143;DHT22;5112;54.088;13.446;2022-08-01T00:30:39;18.40;99.90
10143;DHT22;5112;54.088;13.446;2022-08-01T00:40:42;18.30;99.90
10143;DHT22;5112;54.088;13.446;2022-08-01T00:50:44;18.30;99.90
10143;DHT22;5112;54.088;13.446;2022-08-01T01:00:47;18.20;99.90
10143;DHT22;5112;54.088;13.446;2022-08-01T01:10:55;18.00;99.90
10143;DHT22;5112;54.088;13.446;2022-08-01T01:21:06;18.00;99.90
10143;DHT22;5112;54.088;13.446;2022-08-01T01:31:12;18.00;99.90
10143;DHT22;5112;54.088;13.446;2022-08-01T01:41:17;18.00;99.90
10143;DHT22;5112;54.088;13.446;2022-08-01T01:51:21;18.00;99.90
10143;DHT22;5112;54.088;13.446;2022-08-01T02:01:26;17.80;99.90
10143;DHT22;5112;54.088;13.446;2022-08-01T02:11:31;17.80;99.90
10143;DHT22;5112;54.088;13.446;2022-08-01T02:21:38;17.80;99.90
10143;DHT22;5112;54.088;13.446;2022-08-01T02:31:45;17.90;99.90
10143;DHT22;5112;54.088;13.446;2022-08-01T02:41:50;17.70;99.90
10143;DHT22;5112;54.088;13.446;2022-08-01T02:51:57;17.90;99.90
10143;DHT22;5112;54.088;13.446;2022-08-01T03:02:01;17.90;99.90
10143;DHT22;5112;54.088;13.446;2022-08-01T03:12:16;17.80;99.90
10143;DHT22;5112;54.088;13.446;2022-08-01T03:22:21;17.90;99.90
10143;DHT22;5112;54.088;13.446;2022-08-01T03:32:25;17.90;99.90
10143;DHT22;5112;54.088;13.446;2022-08-01T03:42:32;17.80;99.90
10143;DHT22;5112;54.088;13.446;2022-08-01T03:52:38;17.80;99.90
10143;DHT22;5112;54.088;13.446;2022-08-01T04:02:41;17.90;99.90
10143;DHT22;5112;54.088;13.446;2022-08-01T04:12:44;17.90;99.90
10143;DHT22;5112;54.088;13.446;2022-08-01T04:22:46;18.10;99.90
10143;DHT22;5112;54.088;13.446;2022-08-01T04:32:50;18.10;99.90
10143;DHT22;5112;54.088;13.446;2022-08-01T04:42:52;18.20;99.90
10143;DHT22;5112;54.088;13.446;2022-08-01T04:52:55;18.20;99.90
10143;DHT22;5112;54.088;13.446;2022-08-01T05:02:57;18.30;99.90
10143;DHT22;5112;54.088;13.446;2022-08-01T05:13:00;18.40;99.90
10143;DHT22;5112;54.088;13.446;2022-08-01T05:23:02;18.60;99.90
10143;DHT22;5112;54.088;13.446;2022-08-01T05:33:05;18.70;99.90
10143;DHT22;5112;54.088;13.446;2022-08-01T05:43:07;18.80;99.90
10143;DHT22;5112;54.088;13.446;2022-08-01T05:53:10;19.00;99.90
10143;DHT22;5112;54.088;13.446;2022-08-01T06:03:12;18.80;99.90
10143;DHT22;5112;54.088;13.446;2022-08-01T06:13:16;18.90;99.90
10143;DHT22;5112;54.088;13.446;2022-08-01T06:23:20;19.20;99.90
10143;DHT22;5112;54.088;13.446;2022-08-01T06:33:23;19.60;99.90
10143;DHT22;5112;54.088;13.446;2022-08-01T06:43:25;19.90;99.90
10143;DHT22;5112;54.088;13.446;2022-08-01T06:53:28;20.20;99.90
10143;DHT22;5112;54.088;13.446;2022-08-01T07:03:30;20.30;99.90
10143;DHT22;5112;54.088;13.446;2022-08-01T07:13:33;20.60;99.90
10143;DHT22;5112;54.088;13.446;2022-08-01T07:23:35;20.80;99.90
10143;DHT22;5112;54.088;13.446;2022-08-01T07:33:38;20.80;99.90
10143;DHT22;5112;54.088;13.446;2022-08-01T07:43:40;20.90;99.90
10143;DHT22;5112;54.088;13.446;2022-08-01T07:53:43;21.40;99.90
10143;DHT22;5112;54.088;13.446;2022-08-01T08:03:45;22.00;99.90
10143;DHT22;5112;54.088;13.446;2022-08-01T08:13:48;22.40;99.90
10143;DHT22;5112;54.088;13.446;2022-08-01T08:23:49;22.20;99.90
10143;DHT22;5112;54.088;13.446;2022-08-01T08:34:11;22.50;99.90
10143;DHT22;5112;54.088;13.446;2022-08-01T08:44:13;21.80;99.90
10143;DHT22;5112;54.088;13.446;2022-08-01T08:54:18;21.70;99.90
10143;DHT22;5112;54.088;13.446;2022-08-01T09:04:21;22.10;99.90
10143;DHT22;5112;54.088;13.446;2022-08-01T09:14:26;22.20;99.90
10143;DHT22;5112;54.088;13.446;2022-08-01T09:24:31;21.60;99.90
10143;DHT22;5112;54.088;13.446;2022-08-01T09:34:34;21.20;99.90
10143;DHT22;5112;54.088;13.446;2022-08-01T09:44:37;21.10;99.90
10143;DHT22;5112;54.088;13.446;2022-08-01T09:54:42;21.40;99.90
10143;DHT22;5112;54.088;13.446;2022-08-01T10:04:48;21.50;99.90
10143;DHT22;5112;54.088;13.446;2022-08-01T10:14:52;21.70;99.90
10143;DHT22;5112;54.088;13.446;2022-08-01T10:24:56;21.70;99.90
10143;DHT22;5112;54.088;13.446;2022-08-01T10:35:02;21.80;99.90
10143;DHT22;5112;54.088;13.446;2022-08-01T10:45:06;21.80;99.90
10143;DHT22;5112;54.088;13.446;2022-08-01T10:55:10;21.60;99.90
10143;DHT22;5112;54.088;13.446;2022-08-01T11:05:19;21.40;99.90
10143;DHT22;5112;54.088;13.446;2022-08-01T11:15:23;21.10;99.90
10143;DHT22;5112;54.088;13.446;2022-08-01T11:25:26;20.70;99.90
10143;DHT22;5112;54.088;13.446;2022-08-01T11:35:29;19.80;99.90
10143;DHT22;5112;54.088;13.446;2022-08-01T11:45:47;19.30;99.90
10143;DHT22;5112;54.088;13.446;2022-08-01T11:55:52;19.30;99.90
10143;DHT22;5112;54.088;13.446;2022-08-01T12:05:55;19.60;99.90
10143;DHT22;5112;54.088;13.446;2022-08-01T12:16:06;19.80;99.90
10143;DHT22;5112;54.088;13.446;2022-08-01T12:26:08;20.20;99.90
10143;DHT22;5112;54.088;13.446;2022-08-01T12:36:12;20.20;99.90
10143;DHT22;5112;54.088;13.446;2022-08-01T12:46:13;20.20;99.90
10143;DHT22;5112;54.088;13.446;2022-08-01T12:56:31;20.20;99.90
10143;DHT22;5112;54.088;13.446;2022-08-01T13:06:33;20.20;99.90
10143;DHT22;5112;54.088;13.446;2022-08-01T13:16:47;20.10;99.90
10143;DHT22;5112;54.088;13.446;2022-08-01T13:26:50;19.80;99.90
10143;DHT22;5112;54.088;13.446;2022-08-01T13:36:54;19.70;99.90
10143;DHT22;5112;54.088;13.446;2022-08-01T13:46:56;19.80;99.90
10143;DHT22;5112;54.088;13.446;2022-08-01T13:56:59;20.10;99.90
10143;DHT22;5112;54.088;13.446;2022-08-01T14:07:01;20.00;99.90
10143;DHT22;5112;54.088;13.446;2022-08-01T14:17:04;19.70;99.90
10143;DHT22;5112;54.088;13.446;2022-08-01T14:27:06;20.10;99.90
10143;DHT22;5112;54.088;13.446;2022-08-01T14:37:09;20.40;99.90
10143;DHT22;5112;54.088;13.446;2022-08-01T14:47:10;20.30;99.90
10143;DHT22;5112;54.088;13.446;2022-08-01T14:57:14;20.40;99.90
10143;DHT22;5112;54.088;13.446;2022-08-01T15:07:18;20.50;99.90
10143;DHT22;5112;54.088;13.446;2022-08-01T15:17:23;20.30;99.90
10143;DHT22;5112;54.088;13.446;2022-08-01T15:27:26;20.50;99.90
10143;DHT22;5112;54.088;13.446;2022-08-01T15:37:29;20.60;99.90
10143;DHT22;5112;54.088;13.446;2022-08-01T15:47:31;20.40;99.90
10143;DHT22;5112;54.088;13.446;2022-08-01T15:57:34;20.60;99.90
10143;DHT22;5112;54.088;13.446;2022-08-01T16:07:36;20.90;99.90
10143;DHT22;5112;54.088;13.446;2022-08-01T16:17:40;20.70;99.90
10143;DHT22;5112;54.088;13.446;2022-08-01T16:27:43;21.10;99.90
10143;DHT22;5112;54.088;13.446;2022-08-01T16:37:47;21.20;99.90
10143;DHT22;5112;54.088;13.446;2022-08-01T16:47:49;21.10;99.90
10143;DHT22;5112;54.088;13.446;2022-08-01T16:57:52;21.00;99.90
10143;DHT22;5112;54.088;13.446;2022-08-01T17:07:54;21.00;99.90
10143;DHT22;5112;54.088;13.446;2022-08-01T17:17:57;20.80;99.90
10143;DHT22;5112;54.088;13.446;2022-08-01T17:27:59;20.80;99.90
10143;DHT22;5112;54.088;13.446;2022-08-01T17:38:02;20.60;99.00
10143;DHT22;5112;54.088;13.446;2022-08-01T17:48:04;20.60;95.90
10143;DHT22;5112;54.088;13.446;2022-08-01T17:58:07;20.60;96.50
10143;DHT22;5112;54.088;13.446;2022-08-01T18:08:11;20.30;96.00
10143;DHT22;5112;54.088;13.446;2022-08-01T18:18:14;20.30;94.50
10143;DHT22;5112;54.088;13.446;2022-08-01T18:28:19;20.20;95.60
10143;DHT22;5112;54.088;13.446;2022-08-01T18:38:22;19.80;95.10
10143;DHT22;5112;54.088;13.446;2022-08-01T18:48:23;19.50;97.10
10143;DHT22;5112;54.088;13.446;2022-08-01T18:58:26;19.20;99.40
10143;DHT22;5112;54.088;13.446;2022-08-01T19:08:28;18.70;98.20
10143;DHT22;5112;54.088;13.446;2022-08-01T19:18:31;18.30;99.90
10143;DHT22;5112;54.088;13.446;2022-08-01T19:28:41;18.00;99.90
10143;DHT22;5112;54.088;13.446;2022-08-01T19:38:46;17.60;99.90
10143;DHT22;5112;54.088;13.446;2022-08-01T19:48:47;17.40;99.90
10143;DHT22;5112;54.088;13.446;2022-08-01T19:58:53;17.10;99.90
10143;DHT22;5112;54.088;13.446;2022-08-01T20:08:56;17.00;99.90
10143;DHT22;5112;54.088;13.446;2022-08-01T20:18:59;16.50;99.90
10143;DHT22;5112;54.088;13.446;2022-08-01T20:29:02;16.30;99.90
10143;DHT22;5112;54.088;13.446;2022-08-01T20:39:05;16.20;99.90
10143;DHT22;5112;54.088;13.446;2022-08-01T20:49:11;15.90;99.90
10143;DHT22;5112;54.088;13.446;2022-08-01T20:59:18;15.60;99.90
10143;DHT22;5112;54.088;13.446;2022-08-01T21:09:22;15.20;99.90
10143;DHT22;5112;54.088;13.446;2022-08-01T21:19:26;14.90;99.90
10143;DHT22;5112;54.088;13.446;2022-08-01T21:29:31;14.80;99.90
10143;DHT22;5112;54.088;13.446;2022-08-01T21:39:36;14.80;99.90
10143;DHT22;5112;54.088;13.446;2022-08-01T21:49:38;14.60;99.90
10143;DHT22;5112;54.088;13.446;2022-08-01T21:59:46;14.40;99.90
10143;DHT22;5112;54.088;13.446;2022-08-01T22:09:52;14.40;99.90
10143;DHT22;5112;54.088;13.446;2022-08-01T22:19:56;14.30;99.90
10143;DHT22;5112;54.088;13.446;2022-08-01T22:30:01;14.30;99.90
10143;DHT22;5112;54.088;13.446;2022-08-01T22:40:07;14.10;99.90
10143;DHT22;5112;54.088;13.446;2022-08-01T22:50:14;14.10;99.90
10143;DHT22;5112;54.088;13.446;2022-08-01T23:00:18;14.00;99.90
10143;DHT22;5112;54.088;13.446;2022-08-01T23:10:22;13.90;99.90
10143;DHT22;5112;54.088;13.446;2022-08-01T23:20:26;13.80;99.90
10143;DHT22;5112;54.088;13.446;2022-08-01T23:30:29;13.70;99.90
10143;DHT22;5112;54.088;13.446;2022-08-01T23:40:33;13.70;99.90
10143;DHT22;5112;54.088;13.446;2022-08-01T23:50:35;13.70;99.90
